sensor_id;sensor_type;location;lat;lon;timestamp;P1;durP1;ratioP1;P2;durP2;ratioP2
48813;SDS011;34634;44.108;3.074;2022-09-16T00:02:05;3.95;;;0.80;;
48813;SDS011;34634;44.108;3.074;2022-09-16T00:04:31;2.90;;;0.88;;
48813;SDS011;34634;44.108;3.074;2022-09-16T00:06:58;1.70;;;0.90;;
48813;SDS011;34634;44.108;3.074;2022-09-16T00:09:24;2.95;;;0.90;;
48813;SDS011;34634;44.108;3.074;2022-09-16T00:11:50;2.45;;;0.98;;
48813;SDS011;34634;44.108;3.074;2022-09-16T00:14:17;2.30;;;0.90;;
48813;SDS011;34634;44.108;3.074;2022-09-16T00:16:43;3.92;;;0.80;;
48813;SDS011;34634;44.108;3.074;2022-09-16T00:19:09;2.67;;;0.80;;
48813;SDS011;34634;44.108;3.074;2022-09-16T00:21:37;4.05;;;1.05;;
48813;SDS011;34634;44.108;3.074;2022-09-16T00:24:04;6.50;;;1.05;;
48813;SDS011;34634;44.108;3.074;2022-09-16T00:26:30;2.15;;;0.98;;
48813;SDS011;34634;44.108;3.074;2022-09-16T00:28:59;2.47;;;0.80;;
48813;SDS011;34634;44.108;3.074;2022-09-16T00:31:25;3.08;;;1.02;;
48813;SDS011;34634;44.108;3.074;2022-09-16T00:33:51;2.50;;;0.60;;
48813;SDS011;34634;44.108;3.074;2022-09-16T00:36:18;1.40;;;0.93;;
48813;SDS011;34634;44.108;3.074;2022-09-16T00:38:44;1.88;;;1.05;;
48813;SDS011;34634;44.108;3.074;2022-09-16T00:41:15;2.25;;;0.80;;
48813;SDS011;34634;44.108;3.074;2022-09-16T00:44:01;3.80;;;0.90;;
48813;SDS011;34634;44.108;3.074;2022-09-16T00:46:29;1.60;;;1.10;;
48813;SDS011;34634;44.108;3.074;2022-09-16T00:48:59;1.70;;;0.85;;
48813;SDS011;34634;44.108;3.074;2022-09-16T00:51:27;4.95;;;0.88;;
48813;SDS011;34634;44.108;3.074;2022-09-16T00:53:54;2.60;;;0.93;;
48813;SDS011;34634;44.108;3.074;2022-09-16T00:56:23;2.42;;;1.00;;
48813;SDS011;34634;44.108;3.074;2022-09-16T00:58:56;2.72;;;0.95;;
48813;SDS011;34634;44.108;3.074;2022-09-16T01:01:27;1.65;;;1.10;;
48813;SDS011;34634;44.108;3.074;2022-09-16T01:03:54;3.65;;;0.95;;
48813;SDS011;34634;44.108;3.074;2022-09-16T01:06:21;4.10;;;1.40;;
48813;SDS011;34634;44.108;3.074;2022-09-16T01:08:49;1.13;;;0.80;;
48813;SDS011;34634;44.108;3.074;2022-09-16T01:11:15;2.33;;;0.90;;
48813;SDS011;34634;44.108;3.074;2022-09-16T01:13:42;1.42;;;0.90;;
48813;SDS011;34634;44.108;3.074;2022-09-16T01:26:23;3.63;;;0.95;;
48813;SDS011;34634;44.108;3.074;2022-09-16T01:36:48;2.63;;;1.10;;
48813;SDS011;34634;44.108;3.074;2022-09-16T01:39:28;1.75;;;0.88;;
48813;SDS011;34634;44.108;3.074;2022-09-16T01:42:05;2.55;;;1.13;;
48813;SDS011;34634;44.108;3.074;2022-09-16T01:44:36;5.25;;;1.10;;
48813;SDS011;34634;44.108;3.074;2022-09-16T01:54:52;3.58;;;1.00;;
48813;SDS011;34634;44.108;3.074;2022-09-16T02:00:08;2.10;;;1.00;;
48813;SDS011;34634;44.108;3.074;2022-09-16T02:02:55;2.05;;;1.00;;
48813;SDS011;34634;44.108;3.074;2022-09-16T02:05:25;3.83;;;0.90;;
48813;SDS011;34634;44.108;3.074;2022-09-16T02:08:00;1.77;;;1.15;;
48813;SDS011;34634;44.108;3.074;2022-09-16T02:10:31;1.92;;;0.70;;
48813;SDS011;34634;44.108;3.074;2022-09-16T02:13:20;3.28;;;0.90;;
48813;SDS011;34634;44.108;3.074;2022-09-16T02:15:47;2.72;;;1.02;;
48813;SDS011;34634;44.108;3.074;2022-09-16T02:18:15;2.65;;;1.00;;
48813;SDS011;34634;44.108;3.074;2022-09-16T02:20:44;4.00;;;0.93;;
48813;SDS011;34634;44.108;3.074;2022-09-16T02:23:15;1.98;;;1.10;;
48813;SDS011;34634;44.108;3.074;2022-09-16T02:25:44;1.48;;;1.20;;
48813;SDS011;34634;44.108;3.074;2022-09-16T02:28:12;2.10;;;0.80;;
48813;SDS011;34634;44.108;3.074;2022-09-16T02:30:41;2.00;;;0.77;;
48813;SDS011;34634;44.108;3.074;2022-09-16T02:33:08;3.85;;;0.98;;
48813;SDS011;34634;44.108;3.074;2022-09-16T02:35:35;1.35;;;0.82;;
48813;SDS011;34634;44.108;3.074;2022-09-16T02:38:05;5.85;;;1.00;;
48813;SDS011;34634;44.108;3.074;2022-09-16T02:40:34;4.32;;;1.05;;
48813;SDS011;34634;44.108;3.074;2022-09-16T02:43:02;1.23;;;0.90;;
48813;SDS011;34634;44.108;3.074;2022-09-16T02:45:33;1.30;;;0.90;;
48813;SDS011;34634;44.108;3.074;2022-09-16T02:48:06;4.35;;;1.05;;
48813;SDS011;34634;44.108;3.074;2022-09-16T02:50:39;1.88;;;0.93;;
48813;SDS011;34634;44.108;3.074;2022-09-16T02:55:45;2.88;;;1.23;;
48813;SDS011;34634;44.108;3.074;2022-09-16T02:58:16;2.03;;;0.95;;
48813;SDS011;34634;44.108;3.074;2022-09-16T03:00:44;1.83;;;1.08;;
48813;SDS011;34634;44.108;3.074;2022-09-16T03:03:10;2.67;;;1.00;;
48813;SDS011;34634;44.108;3.074;2022-09-16T03:05:48;2.67;;;1.30;;
48813;SDS011;34634;44.108;3.074;2022-09-16T03:08:23;4.70;;;1.15;;
48813;SDS011;34634;44.108;3.074;2022-09-16T03:10:50;1.88;;;1.02;;
48813;SDS011;34634;44.108;3.074;2022-09-16T03:13:21;2.97;;;1.15;;
48813;SDS011;34634;44.108;3.074;2022-09-16T03:19:13;3.15;;;0.85;;
48813;SDS011;34634;44.108;3.074;2022-09-16T03:26:57;2.22;;;1.05;;
48813;SDS011;34634;44.108;3.074;2022-09-16T03:29:27;2.03;;;0.93;;
48813;SDS011;34634;44.108;3.074;2022-09-16T03:31:59;2.08;;;1.20;;
48813;SDS011;34634;44.108;3.074;2022-09-16T03:34:34;3.75;;;1.33;;
48813;SDS011;34634;44.108;3.074;2022-09-16T03:37:04;3.22;;;1.27;;
48813;SDS011;34634;44.108;3.074;2022-09-16T03:39:32;2.67;;;1.15;;
48813;SDS011;34634;44.108;3.074;2022-09-16T03:42:02;2.42;;;1.00;;
48813;SDS011;34634;44.108;3.074;2022-09-16T03:44:30;1.63;;;1.00;;
48813;SDS011;34634;44.108;3.074;2022-09-16T03:46:57;4.10;;;1.33;;
48813;SDS011;34634;44.108;3.074;2022-09-16T03:49:23;1.55;;;1.00;;
48813;SDS011;34634;44.108;3.074;2022-09-16T03:51:49;4.10;;;1.15;;
48813;SDS011;34634;44.108;3.074;2022-09-16T03:54:16;3.03;;;1.10;;
48813;SDS011;34634;44.108;3.074;2022-09-16T03:56:42;3.05;;;1.45;;
48813;SDS011;34634;44.108;3.074;2022-09-16T03:59:08;5.72;;;1.30;;
48813;SDS011;34634;44.108;3.074;2022-09-16T04:01:35;2.45;;;1.17;;
48813;SDS011;34634;44.108;3.074;2022-09-16T04:04:01;4.85;;;1.02;;
48813;SDS011;34634;44.108;3.074;2022-09-16T04:06:28;1.90;;;1.20;;
48813;SDS011;34634;44.108;3.074;2022-09-16T04:08:54;3.75;;;1.00;;
48813;SDS011;34634;44.108;3.074;2022-09-16T04:11:25;2.22;;;1.25;;
48813;SDS011;34634;44.108;3.074;2022-09-16T04:13:54;2.40;;;1.10;;
48813;SDS011;34634;44.108;3.074;2022-09-16T04:16:20;1.83;;;0.98;;
48813;SDS011;34634;44.108;3.074;2022-09-16T04:18:47;3.08;;;1.00;;
48813;SDS011;34634;44.108;3.074;2022-09-16T04:21:13;3.20;;;1.00;;
48813;SDS011;34634;44.108;3.074;2022-09-16T04:23:40;4.05;;;1.20;;
48813;SDS011;34634;44.108;3.074;2022-09-16T04:26:06;5.82;;;1.38;;
48813;SDS011;34634;44.108;3.074;2022-09-16T04:28:32;4.53;;;1.40;;
48813;SDS011;34634;44.108;3.074;2022-09-16T04:31:00;3.55;;;1.52;;
48813;SDS011;34634;44.108;3.074;2022-09-16T04:33:30;4.90;;;1.30;;
48813;SDS011;34634;44.108;3.074;2022-09-16T04:36:10;2.57;;;1.17;;
48813;SDS011;34634;44.108;3.074;2022-09-16T04:38:37;2.13;;;1.30;;
48813;SDS011;34634;44.108;3.074;2022-09-16T04:41:05;4.15;;;1.50;;
48813;SDS011;34634;44.108;3.074;2022-09-16T04:43:31;2.80;;;1.08;;
48813;SDS011;34634;44.108;3.074;2022-09-16T04:45:58;3.97;;;1.10;;
48813;SDS011;34634;44.108;3.074;2022-09-16T04:48:24;4.60;;;1.35;;
48813;SDS011;34634;44.108;3.074;2022-09-16T04:50:51;4.85;;;1.00;;
48813;SDS011;34634;44.108;3.074;2022-09-16T04:53:18;1.55;;;1.20;;
48813;SDS011;34634;44.108;3.074;2022-09-16T04:55:45;2.13;;;1.30;;
48813;SDS011;34634;44.108;3.074;2022-09-16T04:58:12;2.55;;;1.30;;
48813;SDS011;34634;44.108;3.074;2022-09-16T05:00:38;2.70;;;1.30;;
48813;SDS011;34634;44.108;3.074;2022-09-16T05:03:05;6.53;;;1.60;;
48813;SDS011;34634;44.108;3.074;2022-09-16T05:05:32;4.05;;;1.48;;
48813;SDS011;34634;44.108;3.074;2022-09-16T05:07:58;4.72;;;1.23;;
48813;SDS011;34634;44.108;3.074;2022-09-16T05:10:24;5.20;;;1.35;;
48813;SDS011;34634;44.108;3.074;2022-09-16T05:12:52;3.40;;;1.35;;
48813;SDS011;34634;44.108;3.074;2022-09-16T05:15:19;4.18;;;1.58;;
48813;SDS011;34634;44.108;3.074;2022-09-16T05:17:45;1.98;;;1.20;;
48813;SDS011;34634;44.108;3.074;2022-09-16T05:20:12;1.83;;;1.25;;
48813;SDS011;34634;44.108;3.074;2022-09-16T05:22:38;1.75;;;1.33;;
48813;SDS011;34634;44.108;3.074;2022-09-16T05:25:05;4.00;;;1.40;;
48813;SDS011;34634;44.108;3.074;2022-09-16T05:27:32;4.28;;;1.63;;
48813;SDS011;34634;44.108;3.074;2022-09-16T05:29:58;3.10;;;1.52;;
48813;SDS011;34634;44.108;3.074;2022-09-16T05:32:25;4.13;;;1.60;;
48813;SDS011;34634;44.108;3.074;2022-09-16T05:34:51;4.05;;;1.00;;
48813;SDS011;34634;44.108;3.074;2022-09-16T05:37:18;2.20;;;1.25;;
48813;SDS011;34634;44.108;3.074;2022-09-16T05:39:44;3.85;;;1.40;;
48813;SDS011;34634;44.108;3.074;2022-09-16T05:42:10;2.38;;;1.60;;
48813;SDS011;34634;44.108;3.074;2022-09-16T05:44:37;4.40;;;1.40;;
48813;SDS011;34634;44.108;3.074;2022-09-16T05:47:03;1.88;;;1.20;;
48813;SDS011;34634;44.108;3.074;2022-09-16T05:49:29;2.15;;;1.40;;
48813;SDS011;34634;44.108;3.074;2022-09-16T05:51:56;5.78;;;1.67;;
48813;SDS011;34634;44.108;3.074;2022-09-16T05:54:22;6.22;;;1.55;;
48813;SDS011;34634;44.108;3.074;2022-09-16T05:56:49;4.43;;;1.83;;
48813;SDS011;34634;44.108;3.074;2022-09-16T05:59:16;8.75;;;1.67;;
48813;SDS011;34634;44.108;3.074;2022-09-16T06:01:42;6.40;;;1.92;;
48813;SDS011;34634;44.108;3.074;2022-09-16T06:04:10;3.25;;;1.50;;
48813;SDS011;34634;44.108;3.074;2022-09-16T06:06:37;6.13;;;2.10;;
48813;SDS011;34634;44.108;3.074;2022-09-16T06:09:07;3.42;;;1.58;;
48813;SDS011;34634;44.108;3.074;2022-09-16T06:11:35;4.97;;;1.50;;
48813;SDS011;34634;44.108;3.074;2022-09-16T06:14:02;14.77;;;1.70;;
48813;SDS011;34634;44.108;3.074;2022-09-16T06:16:29;7.05;;;1.70;;
48813;SDS011;34634;44.108;3.074;2022-09-16T06:18:57;8.45;;;2.00;;
48813;SDS011;34634;44.108;3.074;2022-09-16T06:21:24;3.65;;;1.75;;
48813;SDS011;34634;44.108;3.074;2022-09-16T06:23:51;6.25;;;1.77;;
48813;SDS011;34634;44.108;3.074;2022-09-16T06:26:19;5.50;;;1.80;;
48813;SDS011;34634;44.108;3.074;2022-09-16T06:28:46;3.63;;;1.63;;
48813;SDS011;34634;44.108;3.074;2022-09-16T06:31:13;7.82;;;1.60;;
48813;SDS011;34634;44.108;3.074;2022-09-16T06:33:40;6.65;;;1.80;;
48813;SDS011;34634;44.108;3.074;2022-09-16T06:36:07;4.97;;;1.92;;
48813;SDS011;34634;44.108;3.074;2022-09-16T06:38:34;3.28;;;1.77;;
48813;SDS011;34634;44.108;3.074;2022-09-16T06:41:01;4.80;;;1.70;;
48813;SDS011;34634;44.108;3.074;2022-09-16T06:43:28;3.08;;;1.75;;
48813;SDS011;34634;44.108;3.074;2022-09-16T06:45:58;3.95;;;1.80;;
48813;SDS011;34634;44.108;3.074;2022-09-16T06:48:25;3.47;;;1.87;;
48813;SDS011;34634;44.108;3.074;2022-09-16T06:51:02;5.63;;;2.22;;
48813;SDS011;34634;44.108;3.074;2022-09-16T06:53:29;6.80;;;2.00;;
48813;SDS011;34634;44.108;3.074;2022-09-16T06:55:59;5.38;;;1.90;;
48813;SDS011;34634;44.108;3.074;2022-09-16T06:58:26;2.80;;;1.75;;
48813;SDS011;34634;44.108;3.074;2022-09-16T07:00:54;4.43;;;2.05;;
48813;SDS011;34634;44.108;3.074;2022-09-16T07:03:20;4.40;;;2.10;;
48813;SDS011;34634;44.108;3.074;2022-09-16T07:05:54;6.63;;;2.00;;
48813;SDS011;34634;44.108;3.074;2022-09-16T07:08:21;4.00;;;1.90;;
48813;SDS011;34634;44.108;3.074;2022-09-16T07:10:54;7.03;;;2.90;;
48813;SDS011;34634;44.108;3.074;2022-09-16T07:13:21;3.90;;;2.17;;
48813;SDS011;34634;44.108;3.074;2022-09-16T07:15:47;5.07;;;2.70;;
48813;SDS011;34634;44.108;3.074;2022-09-16T07:18:13;5.65;;;3.22;;
48813;SDS011;34634;44.108;3.074;2022-09-16T07:20:40;6.00;;;2.40;;
48813;SDS011;34634;44.108;3.074;2022-09-16T07:23:06;6.32;;;2.42;;
48813;SDS011;34634;44.108;3.074;2022-09-16T07:25:32;7.78;;;2.70;;
48813;SDS011;34634;44.108;3.074;2022-09-16T07:28:00;6.07;;;2.65;;
48813;SDS011;34634;44.108;3.074;2022-09-16T07:30:27;6.25;;;3.03;;
48813;SDS011;34634;44.108;3.074;2022-09-16T07:32:55;5.88;;;2.75;;
48813;SDS011;34634;44.108;3.074;2022-09-16T07:35:22;10.43;;;2.75;;
48813;SDS011;34634;44.108;3.074;2022-09-16T07:37:48;9.40;;;3.22;;
48813;SDS011;34634;44.108;3.074;2022-09-16T07:40:14;7.57;;;2.92;;
48813;SDS011;34634;44.108;3.074;2022-09-16T07:42:41;5.60;;;2.80;;
48813;SDS011;34634;44.108;3.074;2022-09-16T07:45:08;6.22;;;2.72;;
48813;SDS011;34634;44.108;3.074;2022-09-16T07:47:34;9.23;;;2.75;;
48813;SDS011;34634;44.108;3.074;2022-09-16T07:50:00;8.23;;;2.60;;
48813;SDS011;34634;44.108;3.074;2022-09-16T07:52:27;3.20;;;2.20;;
48813;SDS011;34634;44.108;3.074;2022-09-16T07:54:56;6.30;;;2.15;;
48813;SDS011;34634;44.108;3.074;2022-09-16T07:57:22;8.65;;;2.22;;
48813;SDS011;34634;44.108;3.074;2022-09-16T07:59:49;32.58;;;2.38;;
48813;SDS011;34634;44.108;3.074;2022-09-16T08:02:15;27.25;;;2.15;;
48813;SDS011;34634;44.108;3.074;2022-09-16T08:04:43;12.18;;;1.75;;
48813;SDS011;34634;44.108;3.074;2022-09-16T08:07:09;9.73;;;1.70;;
48813;SDS011;34634;44.108;3.074;2022-09-16T08:09:35;5.35;;;1.83;;
48813;SDS011;34634;44.108;3.074;2022-09-16T08:12:03;1.45;;;1.33;;
48813;SDS011;34634;44.108;3.074;2022-09-16T08:14:29;8.05;;;1.70;;
48813;SDS011;34634;44.108;3.074;2022-09-16T08:16:57;1.77;;;1.38;;
48813;SDS011;34634;44.108;3.074;2022-09-16T08:19:23;3.72;;;1.40;;
48813;SDS011;34634;44.108;3.074;2022-09-16T08:21:50;11.48;;;1.58;;
48813;SDS011;34634;44.108;3.074;2022-09-16T08:24:16;4.50;;;1.75;;
48813;SDS011;34634;44.108;3.074;2022-09-16T08:26:42;4.90;;;1.40;;
48813;SDS011;34634;44.108;3.074;2022-09-16T08:29:09;5.28;;;1.70;;
48813;SDS011;34634;44.108;3.074;2022-09-16T08:31:35;14.57;;;2.10;;
48813;SDS011;34634;44.108;3.074;2022-09-16T08:34:02;10.90;;;1.88;;
48813;SDS011;34634;44.108;3.074;2022-09-16T08:36:28;3.70;;;1.63;;
48813;SDS011;34634;44.108;3.074;2022-09-16T08:38:57;3.90;;;1.60;;
48813;SDS011;34634;44.108;3.074;2022-09-16T08:41:25;7.32;;;1.92;;
48813;SDS011;34634;44.108;3.074;2022-09-16T08:46:32;5.40;;;2.13;;
48813;SDS011;34634;44.108;3.074;2022-09-16T08:51:35;6.07;;;2.20;;
48813;SDS011;34634;44.108;3.074;2022-09-16T08:54:45;6.70;;;2.10;;
48813;SDS011;34634;44.108;3.074;2022-09-16T08:56:53;3.10;;;1.95;;
48813;SDS011;34634;44.108;3.074;2022-09-16T08:59:21;6.65;;;2.20;;
48813;SDS011;34634;44.108;3.074;2022-09-16T09:01:55;2.50;;;2.17;;
48813;SDS011;34634;44.108;3.074;2022-09-16T09:04:23;5.75;;;2.30;;
48813;SDS011;34634;44.108;3.074;2022-09-16T09:07:16;2.42;;;1.98;;
48813;SDS011;34634;44.108;3.074;2022-09-16T09:10:33;5.75;;;2.00;;
48813;SDS011;34634;44.108;3.074;2022-09-16T09:12:37;3.75;;;1.95;;
48813;SDS011;34634;44.108;3.074;2022-09-16T09:30:23;4.20;;;2.92;;
48813;SDS011;34634;44.108;3.074;2022-09-16T09:41:05;5.75;;;2.70;;
48813;SDS011;34634;44.108;3.074;2022-09-16T09:43:35;6.07;;;3.38;;
48813;SDS011;34634;44.108;3.074;2022-09-16T09:46:07;5.40;;;3.38;;
48813;SDS011;34634;44.108;3.074;2022-09-16T09:51:09;4.28;;;3.03;;
48813;SDS011;34634;44.108;3.074;2022-09-16T09:53:41;8.20;;;3.45;;
48813;SDS011;34634;44.108;3.074;2022-09-16T09:58:59;4.55;;;3.47;;
48813;SDS011;34634;44.108;3.074;2022-09-16T10:01:28;4.22;;;3.30;;
48813;SDS011;34634;44.108;3.074;2022-09-16T10:03:54;5.78;;;3.30;;
48813;SDS011;34634;44.108;3.074;2022-09-16T10:06:32;5.70;;;3.20;;
48813;SDS011;34634;44.108;3.074;2022-09-16T10:08:59;6.18;;;3.13;;
48813;SDS011;34634;44.108;3.074;2022-09-16T10:11:27;7.88;;;3.63;;
48813;SDS011;34634;44.108;3.074;2022-09-16T10:13:59;3.72;;;3.10;;
48813;SDS011;34634;44.108;3.074;2022-09-16T10:16:27;3.85;;;2.97;;
48813;SDS011;34634;44.108;3.074;2022-09-16T10:19:00;3.65;;;3.35;;
48813;SDS011;34634;44.108;3.074;2022-09-16T10:21:36;5.30;;;3.33;;
48813;SDS011;34634;44.108;3.074;2022-09-16T10:24:03;3.40;;;3.10;;
48813;SDS011;34634;44.108;3.074;2022-09-16T10:26:30;5.25;;;2.85;;
48813;SDS011;34634;44.108;3.074;2022-09-16T10:29:14;4.85;;;3.10;;
48813;SDS011;34634;44.108;3.074;2022-09-16T10:31:41;4.00;;;3.15;;
48813;SDS011;34634;44.108;3.074;2022-09-16T10:39:29;4.18;;;3.05;;
48813;SDS011;34634;44.108;3.074;2022-09-16T10:41:56;3.63;;;2.55;;
48813;SDS011;34634;44.108;3.074;2022-09-16T10:44:24;5.53;;;2.50;;
48813;SDS011;34634;44.108;3.074;2022-09-16T10:46:56;5.65;;;2.80;;
48813;SDS011;34634;44.108;3.074;2022-09-16T10:49:33;3.63;;;2.88;;
48813;SDS011;34634;44.108;3.074;2022-09-16T10:52:16;4.32;;;2.53;;
48813;SDS011;34634;44.108;3.074;2022-09-16T10:54:43;4.22;;;2.63;;
48813;SDS011;34634;44.108;3.074;2022-09-16T10:59:54;7.40;;;2.65;;
48813;SDS011;34634;44.108;3.074;2022-09-16T11:02:36;3.65;;;2.33;;
48813;SDS011;34634;44.108;3.074;2022-09-16T11:05:06;2.47;;;2.22;;
48813;SDS011;34634;44.108;3.074;2022-09-16T11:07:40;3.47;;;2.38;;
48813;SDS011;34634;44.108;3.074;2022-09-16T11:15:18;3.33;;;2.10;;
48813;SDS011;34634;44.108;3.074;2022-09-16T11:25:33;7.20;;;2.35;;
48813;SDS011;34634;44.108;3.074;2022-09-16T11:30:31;4.07;;;1.83;;
48813;SDS011;34634;44.108;3.074;2022-09-16T11:38:22;2.08;;;1.85;;
48813;SDS011;34634;44.108;3.074;2022-09-16T11:48:52;3.90;;;2.00;;
48813;SDS011;34634;44.108;3.074;2022-09-16T11:51:27;2.55;;;1.90;;
48813;SDS011;34634;44.108;3.074;2022-09-16T11:54:01;4.53;;;1.80;;
48813;SDS011;34634;44.108;3.074;2022-09-16T11:59:01;2.78;;;1.90;;
48813;SDS011;34634;44.108;3.074;2022-09-16T12:01:38;4.78;;;2.00;;
48813;SDS011;34634;44.108;3.074;2022-09-16T12:06:56;3.30;;;1.65;;
48813;SDS011;34634;44.108;3.074;2022-09-16T12:09:27;4.07;;;1.83;;
48813;SDS011;34634;44.108;3.074;2022-09-16T12:11:59;8.18;;;2.03;;
48813;SDS011;34634;44.108;3.074;2022-09-16T12:14:29;9.13;;;2.13;;
48813;SDS011;34634;44.108;3.074;2022-09-16T12:17:07;2.95;;;1.58;;
48813;SDS011;34634;44.108;3.074;2022-09-16T12:22:03;3.78;;;1.90;;
48813;SDS011;34634;44.108;3.074;2022-09-16T12:24:41;3.10;;;1.98;;
48813;SDS011;34634;44.108;3.074;2022-09-16T12:27:11;2.25;;;1.80;;
48813;SDS011;34634;44.108;3.074;2022-09-16T12:29:42;3.90;;;1.85;;
48813;SDS011;34634;44.108;3.074;2022-09-16T12:32:12;4.80;;;1.85;;
48813;SDS011;34634;44.108;3.074;2022-09-16T12:34:53;2.92;;;1.65;;
48813;SDS011;34634;44.108;3.074;2022-09-16T12:37:30;2.42;;;1.83;;
48813;SDS011;34634;44.108;3.074;2022-09-16T12:39:58;1.65;;;1.48;;
48813;SDS011;34634;44.108;3.074;2022-09-16T12:55:43;3.00;;;1.70;;
48813;SDS011;34634;44.108;3.074;2022-09-16T12:58:19;4.65;;;1.60;;
48813;SDS011;34634;44.108;3.074;2022-09-16T13:00:54;1.98;;;1.40;;
48813;SDS011;34634;44.108;3.074;2022-09-16T13:03:24;3.28;;;1.73;;
48813;SDS011;34634;44.108;3.074;2022-09-16T13:05:52;4.63;;;1.52;;
48813;SDS011;34634;44.108;3.074;2022-09-16T13:08:24;4.07;;;1.45;;
48813;SDS011;34634;44.108;3.074;2022-09-16T13:11:01;4.30;;;1.58;;
48813;SDS011;34634;44.108;3.074;2022-09-16T13:13:36;5.40;;;1.70;;
48813;SDS011;34634;44.108;3.074;2022-09-16T13:16:05;6.57;;;1.65;;
48813;SDS011;34634;44.108;3.074;2022-09-16T13:21:26;6.15;;;1.55;;
48813;SDS011;34634;44.108;3.074;2022-09-16T13:24:22;3.15;;;1.35;;
48813;SDS011;34634;44.108;3.074;2022-09-16T13:26:43;2.55;;;1.35;;
48813;SDS011;34634;44.108;3.074;2022-09-16T13:31:56;2.35;;;1.50;;
48813;SDS011;34634;44.108;3.074;2022-09-16T13:34:23;1.85;;;1.60;;
48813;SDS011;34634;44.108;3.074;2022-09-16T13:36:49;4.40;;;1.40;;
48813;SDS011;34634;44.108;3.074;2022-09-16T13:39:27;2.35;;;1.70;;
48813;SDS011;34634;44.108;3.074;2022-09-16T13:41:53;2.40;;;1.50;;
48813;SDS011;34634;44.108;3.074;2022-09-16T13:45:02;4.28;;;1.58;;
48813;SDS011;34634;44.108;3.074;2022-09-16T13:49:43;2.28;;;1.50;;
48813;SDS011;34634;44.108;3.074;2022-09-16T13:52:10;3.92;;;1.67;;
48813;SDS011;34634;44.108;3.074;2022-09-16T13:54:41;4.35;;;1.40;;
48813;SDS011;34634;44.108;3.074;2022-09-16T14:07:24;2.38;;;1.40;;
48813;SDS011;34634;44.108;3.074;2022-09-16T14:14:45;3.97;;;1.52;;
48813;SDS011;34634;44.108;3.074;2022-09-16T14:17:20;5.68;;;1.83;;
48813;SDS011;34634;44.108;3.074;2022-09-16T14:19:47;1.48;;;1.38;;
48813;SDS011;34634;44.108;3.074;2022-09-16T14:22:16;1.75;;;1.30;;
48813;SDS011;34634;44.108;3.074;2022-09-16T14:24:43;2.75;;;1.40;;
48813;SDS011;34634;44.108;3.074;2022-09-16T14:32:22;5.40;;;1.48;;
48813;SDS011;34634;44.108;3.074;2022-09-16T14:34:49;3.22;;;1.48;;
48813;SDS011;34634;44.108;3.074;2022-09-16T14:37:17;1.95;;;1.40;;
48813;SDS011;34634;44.108;3.074;2022-09-16T14:39:44;4.07;;;1.50;;
48813;SDS011;34634;44.108;3.074;2022-09-16T14:42:15;4.60;;;1.67;;
48813;SDS011;34634;44.108;3.074;2022-09-16T14:44:46;2.78;;;1.40;;
48813;SDS011;34634;44.108;3.074;2022-09-16T14:47:23;1.48;;;1.38;;
48813;SDS011;34634;44.108;3.074;2022-09-16T14:50:02;2.47;;;1.10;;
48813;SDS011;34634;44.108;3.074;2022-09-16T14:52:32;3.72;;;1.42;;
48813;SDS011;34634;44.108;3.074;2022-09-16T14:54:58;1.33;;;1.23;;
48813;SDS011;34634;44.108;3.074;2022-09-16T14:57:26;3.08;;;1.30;;
48813;SDS011;34634;44.108;3.074;2022-09-16T14:59:57;2.65;;;1.70;;
48813;SDS011;34634;44.108;3.074;2022-09-16T15:02:32;3.00;;;1.70;;
48813;SDS011;34634;44.108;3.074;2022-09-16T15:07:32;2.47;;;1.40;;
48813;SDS011;34634;44.108;3.074;2022-09-16T15:10:06;1.77;;;1.30;;
48813;SDS011;34634;44.108;3.074;2022-09-16T15:12:38;4.65;;;1.52;;
48813;SDS011;34634;44.108;3.074;2022-09-16T15:15:22;3.58;;;1.77;;
48813;SDS011;34634;44.108;3.074;2022-09-16T15:17:53;2.53;;;1.42;;
48813;SDS011;34634;44.108;3.074;2022-09-16T15:20:21;2.47;;;1.77;;
48813;SDS011;34634;44.108;3.074;2022-09-16T15:22:48;2.53;;;1.38;;
48813;SDS011;34634;44.108;3.074;2022-09-16T15:25:22;2.47;;;1.60;;
48813;SDS011;34634;44.108;3.074;2022-09-16T15:27:49;2.90;;;1.38;;
48813;SDS011;34634;44.108;3.074;2022-09-16T15:30:18;1.58;;;1.27;;
48813;SDS011;34634;44.108;3.074;2022-09-16T15:32:45;3.58;;;1.58;;
48813;SDS011;34634;44.108;3.074;2022-09-16T15:35:16;8.80;;;2.05;;
48813;SDS011;34634;44.108;3.074;2022-09-16T15:37:43;6.22;;;1.73;;
48813;SDS011;34634;44.108;3.074;2022-09-16T15:40:20;2.08;;;1.40;;
48813;SDS011;34634;44.108;3.074;2022-09-16T15:42:47;2.13;;;1.63;;
48813;SDS011;34634;44.108;3.074;2022-09-16T15:45:17;3.58;;;1.85;;
48813;SDS011;34634;44.108;3.074;2022-09-16T15:47:52;1.95;;;1.48;;
48813;SDS011;34634;44.108;3.074;2022-09-16T15:50:19;3.00;;;1.58;;
48813;SDS011;34634;44.108;3.074;2022-09-16T15:55:13;2.30;;;1.38;;
48813;SDS011;34634;44.108;3.074;2022-09-16T15:57:43;4.03;;;1.63;;
48813;SDS011;34634;44.108;3.074;2022-09-16T16:00:10;3.15;;;1.50;;
48813;SDS011;34634;44.108;3.074;2022-09-16T16:02:55;1.70;;;1.33;;
48813;SDS011;34634;44.108;3.074;2022-09-16T16:05:26;3.40;;;1.50;;
48813;SDS011;34634;44.108;3.074;2022-09-16T16:07:59;1.60;;;1.48;;
48813;SDS011;34634;44.108;3.074;2022-09-16T16:10:27;1.85;;;1.20;;
48813;SDS011;34634;44.108;3.074;2022-09-16T16:12:55;4.75;;;1.50;;
48813;SDS011;34634;44.108;3.074;2022-09-16T16:15:24;2.08;;;1.52;;
48813;SDS011;34634;44.108;3.074;2022-09-16T16:17:52;2.10;;;1.50;;
48813;SDS011;34634;44.108;3.074;2022-09-16T16:20:19;4.25;;;1.80;;
48813;SDS011;34634;44.108;3.074;2022-09-16T16:22:46;3.22;;;1.73;;
48813;SDS011;34634;44.108;3.074;2022-09-16T16:25:12;1.92;;;1.38;;
48813;SDS011;34634;44.108;3.074;2022-09-16T16:27:39;6.43;;;1.50;;
48813;SDS011;34634;44.108;3.074;2022-09-16T16:30:05;7.50;;;1.55;;
48813;SDS011;34634;44.108;3.074;2022-09-16T16:32:32;1.75;;;1.35;;
48813;SDS011;34634;44.108;3.074;2022-09-16T16:34:59;6.85;;;1.70;;
48813;SDS011;34634;44.108;3.074;2022-09-16T16:37:26;4.03;;;1.90;;
48813;SDS011;34634;44.108;3.074;2022-09-16T16:39:52;4.53;;;1.60;;
48813;SDS011;34634;44.108;3.074;2022-09-16T16:42:19;3.80;;;1.60;;
48813;SDS011;34634;44.108;3.074;2022-09-16T16:44:47;3.95;;;1.65;;
48813;SDS011;34634;44.108;3.074;2022-09-16T16:47:13;3.15;;;1.67;;
48813;SDS011;34634;44.108;3.074;2022-09-16T16:49:40;2.10;;;1.50;;
48813;SDS011;34634;44.108;3.074;2022-09-16T16:52:06;2.75;;;1.42;;
48813;SDS011;34634;44.108;3.074;2022-09-16T16:54:33;2.67;;;1.65;;
48813;SDS011;34634;44.108;3.074;2022-09-16T16:56:59;3.47;;;1.50;;
48813;SDS011;34634;44.108;3.074;2022-09-16T16:59:28;2.53;;;1.75;;
48813;SDS011;34634;44.108;3.074;2022-09-16T17:01:55;4.05;;;1.90;;
48813;SDS011;34634;44.108;3.074;2022-09-16T17:04:21;3.65;;;1.70;;
48813;SDS011;34634;44.108;3.074;2022-09-16T17:06:48;12.32;;;1.83;;
48813;SDS011;34634;44.108;3.074;2022-09-16T17:09:15;3.65;;;1.88;;
48813;SDS011;34634;44.108;3.074;2022-09-16T17:11:55;2.08;;;1.60;;
48813;SDS011;34634;44.108;3.074;2022-09-16T17:14:22;3.92;;;1.80;;
48813;SDS011;34634;44.108;3.074;2022-09-16T17:16:48;4.85;;;1.67;;
48813;SDS011;34634;44.108;3.074;2022-09-16T17:19:15;3.03;;;1.80;;
48813;SDS011;34634;44.108;3.074;2022-09-16T17:21:43;3.38;;;1.83;;
48813;SDS011;34634;44.108;3.074;2022-09-16T17:24:09;4.85;;;1.70;;
48813;SDS011;34634;44.108;3.074;2022-09-16T17:26:36;3.88;;;1.50;;
48813;SDS011;34634;44.108;3.074;2022-09-16T17:29:02;2.83;;;1.80;;
48813;SDS011;34634;44.108;3.074;2022-09-16T17:31:30;2.38;;;1.40;;
48813;SDS011;34634;44.108;3.074;2022-09-16T17:34:06;3.72;;;2.00;;
48813;SDS011;34634;44.108;3.074;2022-09-16T17:36:38;2.63;;;1.40;;
48813;SDS011;34634;44.108;3.074;2022-09-16T17:41:31;2.92;;;1.70;;
48813;SDS011;34634;44.108;3.074;2022-09-16T17:43:58;5.50;;;1.92;;
48813;SDS011;34634;44.108;3.074;2022-09-16T17:46:24;3.20;;;1.98;;
48813;SDS011;34634;44.108;3.074;2022-09-16T17:48:52;2.42;;;1.73;;